Terminal Aerodrome Forecast
Issued by NWS

Home | Current Version | Previous Version | Text Only | Print | Product List | Glossary On
Versions: 1 2 3 4 5 6 7 8 9 10 11 12 13 14 15 16 17 18 19
000
FTUS42 KGSP 281421 AAA
TAFAND
TAF AMD
KAND 281421Z 2814/2912 22011KT P6SM SCT015
      TEMPO 2814/2816 BKN015
     FM281600 25010G17KT P6SM BKN040
     FM281800 26011G18KT P6SM SCT045
     FM290100 28007KT P6SM FEW060
     FM290400 29003KT P6SM FEW250=

USA.gov is the U.S. government's official web portal to all federal, state and local government web resources and services.